Time;durP1;ratioP1;P1;durP2;ratioP2;P2;SDS_P1;SDS_P2;PMS_P1;PMS_P2;Temp;Humidity;BMP_temperature;BMP_pressure;BME280_temperature;BME280_humidity;BME280_pressure;Samples;Min_cycle;Max_cycle;Signal;HPM_P1;HPM_P2
2022/05/10 00:02:18;;;;;;;8.20;3.90;;;;;;;7.39;44.81;101939.86;1712755;83;21384;-79
2022/05/10 00:04:50;;;;;;;6.17;3.67;;;;;;;7.33;44.98;101939.74;1701895;83;21106;-79
2022/05/10 00:07:19;;;;;;;6.12;3.72;;;;;;;7.33;45.04;101939.74;1697825;84;21129;-81
2022/05/10 00:09:45;;;;;;;8.83;3.30;;;;;;;7.32;45.06;101942.73;1716830;83;20947;-82
2022/05/10 00:12:11;;;;;;;7.60;3.53;;;;;;;7.29;45.07;101934.95;1725297;83;21675;-83
2022/05/10 00:14:38;;;;;;;10.05;3.92;;;;;;;7.24;45.16;101935.33;1720924;81;21098;-84
2022/05/10 00:17:06;;;;;;;8.48;3.10;;;;;;;7.19;45.21;101931.37;1727180;83;21074;-83
2022/05/10 00:19:32;;;;;;;6.15;3.62;;;;;;;7.14;45.29;101929.14;1725777;83;21069;-82
2022/05/10 00:21:59;;;;;;;8.87;3.60;;;;;;;7.12;45.36;101923.52;1715409;83;21481;-84
2022/05/10 00:24:26;;;;;;;6.05;4.00;;;;;;;7.08;45.46;101920.44;1726967;83;21045;-81
2022/05/10 00:26:52;;;;;;;6.08;3.67;;;;;;;7.04;45.44;101917.36;1726899;83;21356;-82
2022/05/10 00:29:19;;;;;;;10.40;3.83;;;;;;;6.97;45.49;101916.37;1709681;81;285149;-84
2022/05/10 00:31:47;;;;;;;8.10;4.08;;;;;;;6.90;45.61;101914.09;1727425;81;21095;-83
2022/05/10 00:34:17;;;;;;;6.08;3.62;;;;;;;6.87;45.68;101912.75;1725184;82;21127;-82
2022/05/10 00:36:43;;;;;;;7.42;3.60;;;;;;;6.85;45.77;101922.13;1725455;81;21474;-80
2022/05/10 00:39:13;;;;;;;8.48;4.20;;;;;;;6.80;45.88;101916.45;1709364;82;21052;-80
2022/05/10 00:41:54;;;;;;;;;;;;;;;6.77;45.95;101920.23;1722719;82;21136;-81
2022/05/10 00:44:26;;;;;;;6.90;4.33;;;;;;;6.74;46.71;101920.21;1735050;82;20502;-80
2022/05/10 00:47:06;;;;;;;7.05;3.98;;;;;;;6.70;46.11;101911.56;1709137;81;20950;-82
2022/05/10 00:49:40;;;;;;;6.58;3.65;;;;;;;6.68;46.12;101909.80;1718017;82;20940;-84
2022/05/10 00:52:18;;;;;;;7.42;3.77;;;;;;;6.68;46.23;101904.66;1725320;82;20906;-83
2022/05/10 00:55:15;;;;;;;6.22;3.35;;;;;;;6.65;46.27;101900.32;1724542;82;20879;-81
2022/05/10 00:57:50;;;;;;;6.85;3.90;;;;;;;6.58;46.32;101895.47;1736757;81;20851;-83
2022/05/10 01:00:24;;;;;;;9.85;3.77;;;;;;;6.54;46.36;101894.95;1735034;81;20906;-81
2022/05/10 01:03:13;;;;;;;7.20;3.60;;;;;;;6.46;46.38;101896.91;1707201;82;20902;-79
2022/05/10 01:06:14;;;;;;;7.53;3.87;;;;;;;6.38;46.53;101895.47;1734088;81;20950;-84
2022/05/10 01:09:01;;;;;;;10.83;3.73;;;;;;;6.30;46.60;101891.86;1707611;84;21904;-80
2022/05/10 01:11:33;;;;;;;;;;;;;;;6.23;46.71;101887.03;1715398;82;21055;-82
2022/05/10 01:14:23;;;;;;;6.03;3.60;;;;;;;6.18;47.38;101888.63;1710804;82;20130;-81
2022/05/10 01:16:49;;;;;;;6.10;3.27;;;;;;;6.14;46.84;101885.96;1715379;82;21556;-83
2022/05/10 01:19:15;;;;;;;6.12;3.55;;;;;;;6.11;46.88;101886.77;1719932;82;21061;-83
2022/05/10 01:22:32;;;;;;;5.35;3.05;;;;;;;6.07;46.95;101877.67;1715362;82;21016;-80
2022/05/10 01:25:35;;;;;;;7.12;3.58;;;;;;;6.04;46.99;101878.88;1731668;82;20946;-81
2022/05/10 01:28:34;;;;;;;5.47;3.70;;;;;;;5.95;47.04;101879.12;1713737;82;21068;-83
2022/05/10 01:31:08;;;;;;;10.93;3.25;;;;;;;5.90;47.13;101876.86;1704952;84;21064;-83
2022/05/10 01:33:51;;;;;;;7.50;3.55;;;;;;;5.81;47.21;101874.05;1672426;84;21128;-82
2022/05/10 01:36:44;;;;;;;5.15;3.20;;;;;;;5.77;47.33;101873.52;1694065;82;21590;-83
2022/05/10 01:39:30;;;;;;;10.98;3.67;;;;;;;5.74;47.38;101864.88;1700614;83;21005;-84
2022/05/10 01:42:15;;;;;;;6.58;3.45;;;;;;;5.72;47.47;101866.58;1700246;83;21517;-81
2022/05/10 01:44:52;;;;;;;8.20;3.62;;;;;;;5.67;47.49;101865.59;1702838;84;21128;-81
2022/05/10 01:47:27;;;;;;;8.60;4.83;;;;;;;5.59;47.59;101873.11;1687360;83;21024;-81
2022/05/10 01:50:10;;;;;;;8.15;4.58;;;;;;;5.56;47.74;101858.50;1670677;84;20997;-80
2022/05/10 01:53:14;;;;;;;7.28;4.10;;;;;;;5.53;47.88;101857.14;1694902;84;21036;-83
2022/05/10 01:55:46;;;;;;;7.35;5.12;;;;;;;5.56;47.88;101851.22;1703081;84;21064;-84
2022/05/10 01:58:25;;;;;;;7.22;4.55;;;;;;;5.54;47.89;101852.88;1690438;84;21751;-83
2022/05/10 02:00:59;;;;;;;7.90;4.47;;;;;;;5.49;47.96;101847.64;1701763;83;21048;-81
2022/05/10 02:03:53;;;;;;;16.55;4.37;;;;;;;5.42;48.03;101847.03;1677483;84;21079;-83
2022/05/10 02:06:50;;;;;;;10.75;5.47;;;;;;;5.34;48.00;101840.84;1674457;85;21140;-80
2022/05/10 02:09:35;;;;;;;9.65;5.97;;;;;;;5.27;48.18;101844.95;1676503;84;21572;-81
2022/05/10 02:12:40;;;;;;;10.60;6.00;;;;;;;5.23;48.25;101839.30;1674546;84;21709;-81
2022/05/10 02:15:21;;;;;;;8.38;6.30;;;;;;;5.22;48.43;101838.84;1676100;84;20938;-82
2022/05/10 02:17:55;;;;;;;9.70;6.03;;;;;;;5.25;48.52;101831.22;1693739;83;20970;-81
2022/05/10 02:20:32;;;;;;;15.98;5.72;;;;;;;5.24;48.61;101836.31;1675978;83;20957;-81
2022/05/10 02:23:06;;;;;;;8.88;4.83;;;;;;;5.22;48.63;101823.87;1675759;85;20956;-83
2022/05/10 02:25:43;;;;;;;7.37;4.95;;;;;;;5.22;48.68;101823.87;1674921;84;20937;-82
2022/05/10 02:28:26;;;;;;;6.55;4.15;;;;;;;5.17;48.66;101824.20;1679521;84;21441;-83
2022/05/10 02:30:58;;;;;;;7.83;4.57;;;;;;;5.12;48.69;101821.52;1649247;85;20958;-83
2022/05/10 02:33:25;;;;;;;6.55;4.67;;;;;;;5.09;48.77;101820.16;1685291;83;21395;-81
2022/05/10 02:36:00;;;;;;;6.50;4.40;;;;;;;5.08;48.88;101820.12;1698510;81;21384;-81
2022/05/10 02:38:36;;;;;;;6.85;4.35;;;;;;;5.05;48.91;101815.78;1683564;83;21391;-83
2022/05/10 02:41:14;;;;;;;12.33;4.97;;;;;;;5.02;48.94;101811.85;1696899;81;21434;-82
2022/05/10 02:43:56;;;;;;;5.95;4.35;;;;;;;4.97;49.08;101813.42;1671200;85;20879;-81
2022/05/10 02:46:26;;;;;;;9.63;4.53;;;;;;;4.93;49.14;101812.89;1703009;83;20898;-82
2022/05/10 02:48:53;;;;;;;9.58;4.42;;;;;;;4.90;49.25;101808.97;1657998;84;21412;-82
2022/05/10 02:51:19;;;;;;;6.83;3.92;;;;;;;4.88;49.38;101808.93;1694330;81;21400;-82
2022/05/10 02:53:47;;;;;;;8.53;4.03;;;;;;;4.87;49.42;101808.47;1713358;81;21350;-81
2022/05/10 02:56:18;;;;;;;7.05;4.10;;;;;;;4.86;49.52;101802.03;1665172;83;21093;-81
2022/05/10 02:58:52;;;;;;;6.90;3.65;;;;;;;4.87;49.51;101805.05;1689004;83;21100;-81
2022/05/10 03:01:38;;;;;;;6.40;4.08;;;;;;;4.84;49.54;101803.27;1664304;83;21506;-82
2022/05/10 03:04:09;;;;;;;5.55;3.55;;;;;;;4.80;49.61;101801.86;1720889;82;21502;-85
2022/05/10 03:06:37;;;;;;;6.30;4.08;;;;;;;4.75;49.69;101795.75;1702906;82;21001;-84
2022/05/10 03:09:05;;;;;;;5.65;3.95;;;;;;;4.74;49.76;101794.02;1685577;84;21600;-82
2022/05/10 03:11:32;;;;;;;7.50;4.25;;;;;;;4.76;49.85;101797.07;1713947;82;21072;-82
2022/05/10 03:13:59;;;;;;;7.62;3.83;;;;;;;4.76;49.93;101794.51;1678993;84;21664;-82
2022/05/10 03:16:26;;;;;;;5.85;3.80;;;;;;;4.75;49.99;101797.03;1690616;84;21474;-80
2022/05/10 03:18:55;;;;;;;5.65;3.90;;;;;;;4.73;50.06;101798.69;1702286;84;21005;-81
2022/05/10 03:21:23;;;;;;;6.97;3.50;;;;;;;4.72;50.15;101793.11;1691638;84;21070;-83
2022/05/10 03:23:50;;;;;;;7.55;4.05;;;;;;;4.72;50.14;101795.25;1681301;85;21038;-84
2022/05/10 03:26:26;;;;;;;8.08;4.25;;;;;;;4.71;50.20;101794.80;1678650;85;21585;-84
2022/05/10 03:28:53;;;;;;;5.95;4.08;;;;;;;4.69;50.30;101787.90;1682619;84;21514;-85
2022/05/10 03:31:22;;;;;;;10.58;4.22;;;;;;;4.69;50.46;101786.20;1685721;82;21076;-83
2022/05/10 03:34:53;;;;;;;9.55;4.15;;;;;;;4.72;50.47;101791.41;1692397;84;20954;-83
2022/05/10 03:36:16;;;;;;;5.92;2.98;;;;;;;4.75;50.54;101785.50;1675771;85;21571;-82
2022/05/10 03:38:42;;;;;;;5.67;4.03;;;;;;;4.78;50.56;101789.42;1691004;82;21740;-82
2022/05/10 03:41:08;;;;;;;5.37;4.10;;;;;;;4.81;50.67;101789.50;1699177;84;21801;-83
2022/05/10 03:43:34;;;;;;;6.03;3.85;;;;;;;4.82;50.70;101786.12;1707881;84;21523;-82
2022/05/10 03:46:06;;;;;;;5.67;4.00;;;;;;;4.82;50.76;101783.55;1707165;82;21002;-84
2022/05/10 03:48:32;;;;;;;7.42;4.55;;;;;;;4.85;50.82;101780.66;1708783;84;21462;-83
2022/05/10 03:50:58;;;;;;;7.33;4.30;;;;;;;4.91;51.05;101783.80;1704392;82;21562;-82
2022/05/10 03:53:24;;;;;;;11.60;4.47;;;;;;;4.93;51.06;101775.31;1702619;82;20898;-85
2022/05/10 03:55:50;;;;;;;10.73;4.40;;;;;;;5.01;51.15;101775.92;1702177;82;20954;-84
2022/05/10 03:58:16;;;;;;;7.83;4.35;;;;;;;5.08;51.29;101772.28;1697042;82;21624;-84
2022/05/10 04:00:41;;;;;;;8.57;3.53;;;;;;;5.17;51.46;101772.92;1707494;82;20974;-82
2022/05/10 04:03:08;;;;;;;6.47;3.60;;;;;;;5.29;51.53;101776.63;1716947;82;21049;-85
2022/05/10 04:05:34;;;;;;;8.45;3.42;;;;;;;5.49;51.63;101773.25;1706670;81;21045;-82
2022/05/10 04:08:00;;;;;;;9.45;4.42;;;;;;;5.74;51.69;101772.49;1717594;81;20985;-84
2022/05/10 04:10:26;;;;;;;8.63;4.37;;;;;;;5.94;51.71;101769.56;1705785;82;21066;-82
2022/05/10 04:12:52;;;;;;;7.28;4.00;;;;;;;6.15;51.72;101764.44;1709565;82;21061;-82
2022/05/10 04:15:19;;;;;;;5.23;3.90;;;;;;;6.31;51.73;101762.59;1710125;82;20952;-83
2022/05/10 04:17:46;;;;;;;7.67;4.05;;;;;;;6.46;51.81;101760.74;1711818;82;20922;-82
2022/05/10 04:20:15;;;;;;;10.48;4.72;;;;;;;6.60;51.85;101758.88;1685132;82;20946;-81
2022/05/10 04:22:42;;;;;;;9.50;3.55;;;;;;;6.75;51.87;101761.29;1697986;82;20918;-81
2022/05/10 04:25:09;;;;;;;11.18;4.75;;;;;;;6.81;51.90;101760.95;1707534;83;21444;-81
2022/05/10 04:27:36;;;;;;;9.05;4.75;;;;;;;6.93;51.99;101762.87;1714592;82;20950;-81
2022/05/10 04:30:04;;;;;;;11.40;3.95;;;;;;;7.02;51.98;101762.16;1707376;82;20946;-80
2022/05/10 04:32:30;;;;;;;10.48;4.05;;;;;;;7.08;51.98;101755.84;1722705;81;20875;-80
2022/05/10 04:34:56;;;;;;;11.13;4.17;;;;;;;7.13;52.04;101752.92;1701563;81;20993;-80
2022/05/10 04:37:22;;;;;;;9.30;4.47;;;;;;;7.17;52.07;101753.00;1704391;81;20891;-80
2022/05/10 04:42:32;;;;;;;10.23;4.00;;;;;;;7.28;52.23;101751.85;1677058;84;20926;-80
2022/05/10 04:45:00;;;;;;;6.43;4.33;;;;;;;7.35;52.30;101753.67;1714080;82;20913;-80
2022/05/10 04:47:26;;;;;;;5.40;3.75;;;;;;;7.44;52.38;101757.68;1722718;81;20946;-80
2022/05/10 04:49:52;;;;;;;9.05;5.03;;;;;;;7.53;52.42;101760.39;1715488;81;21355;-80
2022/05/10 04:52:18;;;;;;;9.43;3.80;;;;;;;7.64;52.50;101755.41;1695178;82;21360;-80
2022/05/10 04:54:44;;;;;;;9.03;4.20;;;;;;;7.79;52.60;101758.61;1692273;82;20871;-81
2022/05/10 04:57:10;;;;;;;9.13;4.07;;;;;;;7.94;52.66;101758.37;1699451;81;21431;-81
2022/05/10 04:59:36;;;;;;;8.63;3.70;;;;;;;8.11;52.71;101753.44;1688515;83;21092;-81
2022/05/10 05:02:02;;;;;;;8.60;4.07;;;;;;;8.32;52.78;101745.52;1690342;81;21362;-81
2022/05/10 05:04:28;;;;;;;8.45;4.42;;;;;;;8.58;52.89;101751.83;1696159;82;21542;-80
2022/05/10 05:06:54;;;;;;;9.53;4.37;;;;;;;8.96;53.00;101747.02;1696647;84;21058;-82
2022/05/10 05:09:20;;;;;;;6.47;3.60;;;;;;;9.56;53.12;101742.72;1673984;84;21136;-81
2022/05/10 05:11:46;;;;;;;5.40;4.00;;;;;;;10.29;53.24;101739.63;1696980;84;21061;-82
2022/05/10 05:14:12;;;;;;;8.90;3.55;;;;;;;11.11;53.25;101741.00;1694654;83;21081;-82
2022/05/10 05:16:39;;;;;;;6.33;3.62;;;;;;;11.97;53.28;101736.50;1685195;84;21059;-81
2022/05/10 05:19:05;;;;;;;7.13;4.40;;;;;;;12.83;53.19;101731.68;1697284;84;21123;-82
2022/05/10 05:21:31;;;;;;;6.75;3.87;;;;;;;13.58;53.15;101725.36;1697257;84;21111;-82
2022/05/10 05:23:58;;;;;;;8.25;3.90;;;;;;;14.31;53.03;101729.65;1683137;83;21251;-80
2022/05/10 05:26:24;;;;;;;13.93;4.40;;;;;;;14.99;53.00;101729.52;1669515;84;21058;-81
2022/05/10 05:28:51;;;;;;;10.13;3.63;;;;;;;15.60;52.86;101721.45;1679334;83;20993;-81
2022/05/10 05:31:18;;;;;;;7.35;4.03;;;;;;;16.25;52.67;101723.59;1701061;82;21538;-81
2022/05/10 05:33:45;;;;;;;9.03;3.55;;;;;;;16.88;52.65;101723.43;1700415;82;20963;-80
2022/05/10 05:36:11;;;;;;;8.93;3.83;;;;;;;17.48;52.42;101729.27;1685177;82;20894;-81
2022/05/10 05:38:37;;;;;;;7.87;3.90;;;;;;;18.00;52.36;101730.90;1691477;83;21576;-81
2022/05/10 05:41:03;;;;;;;5.92;3.77;;;;;;;18.44;52.17;101728.23;1691530;82;20868;-80
2022/05/10 05:43:29;;;;;;;4.90;3.40;;;;;;;18.75;52.10;101726.83;1701272;83;20903;-82
2022/05/10 05:45:55;;;;;;;9.97;4.53;;;;;;;19.14;51.97;101733.39;1703543;82;20890;-81
2022/05/10 05:48:22;;;;;;;7.70;3.67;;;;;;;19.53;51.69;101729.00;1692582;82;20901;-81
2022/05/10 05:50:48;;;;;;;6.22;3.20;;;;;;;19.98;51.51;101736.09;1693926;82;21392;-81
2022/05/10 05:53:14;;;;;;;4.53;3.67;;;;;;;20.49;51.39;101733.25;1673243;84;20931;-82
2022/05/10 05:55:42;;;;;;;5.05;3.77;;;;;;;21.01;51.33;101728.03;1694226;83;20927;-82
2022/05/10 05:58:10;;;;;;;4.15;3.75;;;;;;;21.50;51.18;101731.20;1693577;82;20975;-82
2022/05/10 06:00:37;;;;;;;10.93;3.60;;;;;;;22.00;51.09;101737.28;1677641;82;334167;-82
2022/05/10 06:03:03;;;;;;;9.00;3.15;;;;;;;22.34;50.73;101739.25;1661558;84;20943;-82
2022/05/10 06:05:29;;;;;;;9.73;3.80;;;;;;;22.55;50.24;101731.61;1691372;84;20890;-82
2022/05/10 06:07:56;;;;;;;13.80;3.83;;;;;;;22.62;49.95;101734.34;1689078;84;20990;-81
2022/05/10 06:10:22;;;;;;;4.80;3.37;;;;;;;22.72;49.52;101734.75;1646849;84;20969;-82
2022/05/10 06:12:48;;;;;;;7.33;3.30;;;;;;;22.70;49.36;101737.92;1655018;84;21739;-82
2022/05/10 06:15:18;;;;;;;9.23;3.80;;;;;;;22.77;49.00;101730.96;1661551;84;20907;-82
2022/05/10 06:17:46;;;;;;;6.33;3.95;;;;;;;22.76;48.44;101730.57;1665063;84;20987;-82
2022/05/10 06:20:17;;;;;;;6.00;3.02;;;;;;;22.76;48.05;101724.45;1691336;84;21105;-82
2022/05/10 06:22:45;;;;;;;9.23;3.40;;;;;;;22.71;47.83;101733.05;1679090;84;21080;-82
2022/05/10 06:25:17;;;;;;;8.75;3.58;;;;;;;22.76;47.65;101723.12;1678052;84;21066;-80
2022/05/10 06:27:47;;;;;;;7.25;3.50;;;;;;;22.83;47.18;101720.61;1680579;84;21061;-80
2022/05/10 06:30:14;;;;;;;4.37;2.98;;;;;;;22.93;46.97;101721.83;1694520;84;21637;-80
2022/05/10 06:32:40;;;;;;;7.50;3.10;;;;;;;23.10;46.67;101719.66;1685679;84;21136;-80
2022/05/10 06:35:08;;;;;;;10.80;3.57;;;;;;;23.25;46.27;101717.56;1677859;84;21089;-81
2022/05/10 06:40:22;;;;;;;4.42;3.35;;;;;;;23.43;45.59;101709.13;1658333;84;21077;-80
2022/05/10 06:42:48;;;;;;;7.40;3.75;;;;;;;23.35;45.33;101702.97;1657631;84;21050;-80
2022/05/10 06:45:18;;;;;;;7.72;3.25;;;;;;;23.34;45.11;101699.94;1675464;84;21122;-80
2022/05/10 06:47:49;;;;;;;7.42;3.80;;;;;;;23.44;45.00;101701.13;1674918;84;21111;-80
2022/05/10 06:50:20;;;;;;;5.35;3.33;;;;;;;23.65;44.52;101693.91;1669503;82;21071;-80
2022/05/10 06:52:54;;;;;;;9.05;3.55;;;;;;;23.75;44.32;101693.80;1636022;84;21072;-80
2022/05/10 06:55:23;;;;;;;6.72;3.65;;;;;;;23.89;44.03;101694.84;1680935;81;20986;-80
2022/05/10 06:57:50;;;;;;;9.08;3.33;;;;;;;23.95;43.78;101700.61;1685635;84;21468;-80
2022/05/10 07:00:17;;;;;;;7.25;2.77;;;;;;;23.95;43.57;101701.08;1686852;84;21488;-81
2022/05/10 07:02:45;;;;;;;8.28;3.33;;;;;;;23.96;43.36;101698.82;1629890;84;21145;-76
2022/05/10 07:05:13;;;;;;;4.60;3.17;;;;;;;23.98;43.13;101692.98;1631676;85;21099;-76
2022/05/10 07:07:40;;;;;;;5.80;3.20;;;;;;;23.95;42.90;101682.59;1626985;85;21095;-76
2022/05/10 07:10:10;;;;;;;5.70;3.33;;;;;;;24.13;42.58;101693.46;1623300;86;21147;-76
2022/05/10 07:12:39;;;;;;;8.43;3.45;;;;;;;24.27;42.53;101694.05;1630599;85;20973;-77
2022/05/10 07:15:10;;;;;;;7.35;3.50;;;;;;;24.43;42.21;101689.61;1645569;84;20883;-76
2022/05/10 07:17:38;;;;;;;10.43;3.37;;;;;;;24.51;41.92;101689.14;1645791;84;20935;-76
2022/05/10 07:20:06;;;;;;;6.40;2.98;;;;;;;24.66;41.91;101683.83;1644478;86;20926;-76
2022/05/10 07:22:33;;;;;;;5.70;3.58;;;;;;;24.66;41.51;101682.50;1632427;86;20933;-76
2022/05/10 07:24:59;;;;;;;6.92;3.98;;;;;;;24.65;41.43;101675.50;1651062;86;20930;-76
2022/05/10 07:27:25;;;;;;;9.37;4.30;;;;;;;24.69;41.27;101674.86;1655559;86;21597;-76
2022/05/10 07:29:52;;;;;;;10.93;3.60;;;;;;;24.73;41.15;101662.69;1623196;86;20936;-76
2022/05/10 07:32:20;;;;;;;;;;;;;;;24.76;40.93;101666.95;1646142;86;20902;-76
2022/05/10 07:34:46;;;;;;;6.62;3.20;;;;;;;24.87;41.14;101656.59;1691240;82;20759;-76
2022/05/10 07:37:13;;;;;;;14.50;3.85;;;;;;;25.11;41.21;101659.56;1678602;82;20938;-76
2022/05/10 07:39:39;;;;;;;6.97;3.77;;;;;;;25.59;40.93;101664.11;1705857;82;20981;-76
2022/05/10 07:42:06;;;;;;;6.67;3.40;;;;;;;26.00;40.55;101657.53;1693198;82;20930;-76
2022/05/10 07:44:33;;;;;;;6.67;3.45;;;;;;;26.22;40.04;101657.85;1702708;82;20941;-76
2022/05/10 07:47:00;;;;;;;8.98;3.47;;;;;;;26.17;39.60;101659.95;1691345;83;20910;-76
2022/05/10 07:49:26;;;;;;;7.97;4.87;;;;;;;25.90;39.36;101653.32;1693334;82;20933;-76
2022/05/10 07:51:53;;;;;;;5.55;4.08;;;;;;;25.62;39.19;101652.00;1708377;82;20913;-76
2022/05/10 07:54:19;;;;;;;6.03;3.42;;;;;;;25.32;38.98;101639.73;1684624;81;20919;-75
2022/05/10 07:56:45;;;;;;;11.00;3.67;;;;;;;25.16;38.93;101646.91;1699677;82;20945;-75
2022/05/10 07:59:12;;;;;;;8.13;3.70;;;;;;;24.99;38.64;101636.01;1699557;82;20938;-75
2022/05/10 08:01:38;;;;;;;7.87;3.25;;;;;;;24.85;38.61;101638.62;1651864;84;21052;-75
2022/05/10 08:04:05;;;;;;;8.98;3.20;;;;;;;24.74;38.38;101631.33;1655931;84;21058;-75
2022/05/10 08:06:31;;;;;;;6.22;3.40;;;;;;;24.48;38.08;101632.46;1669544;84;21129;-75
2022/05/10 08:08:59;;;;;;;10.40;3.55;;;;;;;24.34;38.13;101630.64;1656067;84;38297;-75
2022/05/10 08:11:25;;;;;;;8.63;3.05;;;;;;;24.35;38.07;101632.34;1644485;84;21001;-75
2022/05/10 08:13:51;;;;;;;6.27;3.17;;;;;;;24.42;37.97;101632.38;1667988;84;20891;-75
2022/05/10 08:16:17;;;;;;;;;;;;;;;24.47;37.82;101628.11;1679075;83;21105;-75
2022/05/10 08:18:48;;;;;;;4.75;2.95;;;;;;;24.41;37.48;101623.59;1681968;82;20149;-75
2022/05/10 08:21:14;;;;;;;7.80;3.15;;;;;;;24.40;37.53;101623.68;1696727;82;21113;-75
2022/05/10 08:23:40;;;;;;;6.65;2.90;;;;;;;24.40;37.42;101623.21;1656048;84;21073;-75
2022/05/10 08:26:08;;;;;;;6.17;3.10;;;;;;;24.43;37.30;101624.83;1691738;84;21081;-75
2022/05/10 08:28:35;;;;;;;6.28;3.02;;;;;;;24.46;37.24;101619.33;1689111;84;21384;-75
2022/05/10 08:31:05;;;;;;;6.62;2.85;;;;;;;24.45;37.16;101617.63;1683525;84;21061;-75
2022/05/10 08:33:36;;;;;;;10.00;3.20;;;;;;;24.51;37.23;101610.66;1667068;82;21111;-75
2022/05/10 08:36:04;;;;;;;5.33;2.77;;;;;;;24.60;37.05;101618.53;1692191;83;21375;-76
2022/05/10 08:38:31;;;;;;;11.10;3.25;;;;;;;24.60;36.94;101611.91;1708388;82;21006;-76
2022/05/10 08:41:15;;;;;;;7.35;2.72;;;;;;;24.64;36.90;101602.86;1689813;83;21054;-76
2022/05/10 08:44:01;;;;;;;6.10;2.77;;;;;;;24.70;36.76;101602.50;1703689;81;21087;-76
2022/05/10 08:46:38;;;;;;;;;;;;;;;24.73;36.63;101597.88;1693975;82;21083;-76
2022/05/10 08:49:34;;;;;;;5.20;2.70;;;;;;;24.67;36.34;101591.62;1647739;84;20185;-76
2022/05/10 08:52:03;;;;;;;8.30;2.25;;;;;;;24.59;36.41;101595.66;1679197;83;20928;-76
2022/05/10 08:54:30;;;;;;;4.60;2.58;;;;;;;24.55;36.51;101592.34;1669176;83;21827;-76
2022/05/10 08:57:01;;;;;;;3.02;1.98;;;;;;;24.50;36.16;101587.80;1679853;83;21157;-76
2022/05/10 08:59:44;;;;;;;3.87;2.50;;;;;;;24.48;36.01;101583.55;1650767;83;20994;-76
2022/05/10 09:02:40;;;;;;;5.42;3.00;;;;;;;24.43;35.96;101585.64;1724990;81;20902;-76
2022/05/10 09:05:20;;;;;;;2.55;2.00;;;;;;;24.39;35.89;101586.28;1689618;82;20914;-76
2022/05/10 09:07:55;;;;;;;6.03;2.22;;;;;;;24.26;35.68;101580.86;1666465;85;20912;-76
2022/05/10 09:10:44;;;;;;;6.28;2.50;;;;;;;24.08;35.33;101581.88;1667168;83;20901;-76
2022/05/10 09:13:16;;;;;;;8.60;2.65;;;;;;;23.92;35.43;101572.64;1611362;88;20961;-76
2022/05/10 09:16:01;;;;;;;6.17;2.15;;;;;;;23.80;35.26;101564.59;1653026;85;20954;-76
2022/05/10 09:18:39;;;;;;;5.20;2.30;;;;;;;23.61;35.21;101562.97;1640792;85;20955;-75
2022/05/10 09:21:25;;;;;;;4.72;2.15;;;;;;;23.42;35.10;101553.84;1641464;85;21411;-75
2022/05/10 09:24:02;;;;;;;10.65;2.95;;;;;;;23.21;35.05;101560.78;1660557;85;20943;-75
2022/05/10 09:26:48;;;;;;;6.33;2.05;;;;;;;23.06;34.86;101558.49;1639926;85;21499;-75
2022/05/10 09:29:40;;;;;;;4.60;2.60;;;;;;;22.84;34.87;101553.52;1648440;85;20987;-75
2022/05/10 09:35:26;;;;;;;7.80;2.42;;;;;;;22.61;34.82;101546.77;1635122;85;20940;-75
2022/05/10 09:38:00;;;;;;;6.25;2.42;;;;;;;22.42;34.66;101543.36;1650594;84;20953;-75
2022/05/10 09:40:47;;;;;;;12.73;3.08;;;;;;;22.29;34.66;101545.78;1652723;84;20956;-76
2022/05/10 09:43:22;;;;;;;7.20;2.65;;;;;;;22.19;34.65;101545.85;1654370;83;20982;-76
2022/05/10 09:46:24;;;;;;;3.75;2.60;;;;;;;22.04;34.65;101543.97;1686529;81;22179;-76
2022/05/10 09:48:50;;;;;;;4.80;2.40;;;;;;;22.01;34.51;101541.45;1649427;84;21368;-75
2022/05/10 09:51:41;;;;;;;6.05;2.22;;;;;;;21.98;34.49;101543.77;1676336;85;21003;-76
2022/05/10 09:54:25;;;;;;;3.10;2.20;;;;;;;21.97;34.46;101538.58;1683729;84;21099;-76
2022/05/10 09:56:56;;;;;;;10.40;2.08;;;;;;;21.96;34.39;101544.77;1685274;84;21415;-75
2022/05/10 09:59:28;;;;;;;5.47;2.70;;;;;;;21.98;34.28;101536.33;1644280;84;21009;-75
2022/05/10 10:02:01;;;;;;;7.30;2.77;;;;;;;22.05;34.46;101535.99;1688687;83;21070;-75
2022/05/10 10:04:34;;;;;;;5.10;2.77;;;;;;;22.08;34.45;101528.41;1697937;81;21603;-75
2022/05/10 10:07:17;;;;;;;7.17;3.42;;;;;;;22.07;34.42;101528.02;1712829;81;20973;-75
2022/05/10 10:09:47;;;;;;;3.55;2.60;;;;;;;22.07;34.50;101522.75;1696437;81;21794;-75
2022/05/10 10:12:37;;;;;;;7.62;2.92;;;;;;;22.07;34.49;101520.11;1688965;81;21537;-74
2022/05/10 10:15:25;;;;;;;4.35;1.87;;;;;;;22.14;34.57;101522.83;1714169;81;20984;-74
2022/05/10 10:18:05;;;;;;;5.83;2.20;;;;;;;22.19;34.47;101513.38;1681295;83;20981;-74
2022/05/10 10:20:51;;;;;;;6.08;2.47;;;;;;;22.21;34.50;101513.70;1673471;83;20993;-74
2022/05/10 10:23:37;;;;;;;4.42;2.33;;;;;;;22.21;34.41;101509.74;1679340;84;21062;-75
2022/05/10 10:26:20;;;;;;;6.28;2.50;;;;;;;22.16;34.44;101509.13;1650105;84;21156;-75
2022/05/10 10:29:19;;;;;;;9.53;2.65;;;;;;;22.12;34.22;101501.83;1691681;82;21030;-75
2022/05/10 10:31:56;;;;;;;3.25;2.10;;;;;;;22.04;34.24;101511.89;1687289;83;20957;-75
2022/05/10 10:34:53;;;;;;;5.85;2.35;;;;;;;22.04;34.30;101496.56;1684520;83;20966;-75
2022/05/10 10:37:29;;;;;;;3.33;2.20;;;;;;;22.06;34.29;101492.06;1678495;82;21486;-75
2022/05/10 10:40:17;;;;;;;;;;;;;;;22.08;34.28;101487.58;1674856;84;20892;-75
2022/05/10 10:42:50;;;;;;;6.40;2.60;;;;;;;22.13;34.20;101477.66;1698689;83;20459;-75
2022/05/10 10:45:18;;;;;;;6.37;2.75;;;;;;;22.16;34.25;101481.92;1671289;83;21027;-75
2022/05/10 10:48:01;;;;;;;9.45;2.22;;;;;;;22.26;34.33;101471.30;1701312;82;20909;-75
2022/05/10 10:50:33;;;;;;;3.20;2.25;;;;;;;22.32;34.32;101459.98;1687536;82;20890;-75
2022/05/10 10:53:02;;;;;;;8.18;2.40;;;;;;;22.34;34.28;101459.45;1692457;83;20878;-75
2022/05/10 10:55:42;;;;;;;4.05;2.30;;;;;;;22.36;34.22;101450.96;1661373;83;20933;-75
2022/05/10 10:58:33;;;;;;;3.45;2.05;;;;;;;22.36;34.29;101452.28;1703310;82;20854;-74
2022/05/10 11:01:14;;;;;;;2.92;2.02;;;;;;;22.42;34.30;101453.75;1666432;84;21409;-74
2022/05/10 11:03:48;;;;;;;8.18;2.25;;;;;;;22.49;34.25;101448.55;1687859;83;20898;-75
2022/05/10 11:06:26;;;;;;;6.58;2.52;;;;;;;22.53;34.17;101439.55;1687252;82;21418;-76
2022/05/10 11:09:07;;;;;;;6.45;2.47;;;;;;;22.54;34.18;101444.34;1694316;83;21498;-76
2022/05/10 11:12:12;;;;;;;5.37;2.00;;;;;;;22.53;34.20;101440.01;1692482;82;20866;-76
2022/05/10 11:15:17;;;;;;;3.87;2.08;;;;;;;22.53;34.13;101437.37;1707455;82;20894;-76
2022/05/10 11:18:03;;;;;;;3.83;2.20;;;;;;;22.44;34.11;101435.60;1702990;83;20965;-76
2022/05/10 11:21:27;;;;;;;5.65;1.80;;;;;;;22.48;34.03;101438.08;1678384;83;21375;-76
2022/05/10 11:24:17;;;;;;;4.15;2.42;;;;;;;22.45;33.93;101426.77;1703007;83;20992;-75
2022/05/10 11:27:29;;;;;;;6.85;2.40;;;;;;;22.50;33.93;101415.12;1648833;86;21004;-75
2022/05/10 11:30:08;;;;;;;2.40;2.02;;;;;;;22.48;33.83;101414.36;1686239;82;21053;-77
2022/05/10 11:33:06;;;;;;;7.20;2.42;;;;;;;22.44;33.83;101408.40;1702282;82;21588;-77
2022/05/10 11:35:58;;;;;;;5.87;2.27;;;;;;;22.45;33.72;101411.42;1706083;82;21064;-77
2022/05/10 11:38:39;;;;;;;5.17;2.33;;;;;;;22.46;33.72;101407.85;1688486;82;21655;-77
2022/05/10 11:41:48;;;;;;;5.40;2.05;;;;;;;22.49;33.63;101401.09;1694802;82;21389;-77
2022/05/10 11:44:46;;;;;;;3.10;2.08;;;;;;;22.52;33.68;101397.45;1664387;84;21532;-77
2022/05/10 11:47:58;;;;;;;8.98;2.20;;;;;;;22.56;33.65;101388.45;1665410;82;21536;-77
2022/05/10 11:54:24;;;;;;;3.10;1.90;;;;;;;22.58;33.50;101372.08;1659443;82;21076;-77
2022/05/10 11:56:53;;;;;;;7.87;1.90;;;;;;;22.58;33.51;101378.67;1688753;83;21502;-77
2022/05/10 11:59:27;;;;;;;4.97;2.08;;;;;;;22.67;33.60;101370.27;1693919;83;21455;-77
2022/05/10 12:01:57;;;;;;;4.50;1.92;;;;;;;22.70;33.50;101356.91;1685603;84;21582;-77
2022/05/10 12:04:45;;;;;;;3.22;1.77;;;;;;;22.71;33.50;101354.20;1681626;84;21030;-77
2022/05/10 12:07:24;;;;;;;;;;;;;;;22.68;33.21;101351.73;1691435;82;22366;-77
2022/05/10 12:10:23;;;;;;;4.00;1.80;;;;;;;22.67;33.38;101347.39;1685972;84;20479;-77
2022/05/10 12:13:04;;;;;;;8.45;1.82;;;;;;;22.68;33.29;101341.18;1693700;83;22201;-77
2022/05/10 12:21:25;;;;;;;4.55;2.08;;;;;;;22.67;33.24;101332.04;1651416;84;21005;-83